createdAt,value
2023-04-02T09:06:43.795Z,1.23
2023-04-02T09:09:14.151Z,1.00
2023-04-02T09:11:50.337Z,1.15
2023-04-02T09:14:21.074Z,1.20
2023-04-02T09:16:52.342Z,0.80
2023-04-02T09:19:23.278Z,1.00
2023-04-02T09:22:05.955Z,1.10
2023-04-02T09:24:33.843Z,0.77
2023-04-02T09:27:02.137Z,0.80
2023-04-02T09:29:40.848Z,0.70
2023-04-02T09:32:22.427Z,0.70
2023-04-02T09:34:50.352Z,0.65
2023-04-02T09:37:22.757Z,0.80
2023-04-02T09:39:50.917Z,0.60
2023-04-02T09:42:33.970Z,0.50
2023-04-02T09:45:15.513Z,0.50
2023-04-02T09:47:43.663Z,0.60
2023-04-02T09:50:29.626Z,0.60
2023-04-02T09:52:59.022Z,0.60
2023-04-02T09:55:29.071Z,0.50
2023-04-02T09:58:18.535Z,0.50
2023-04-02T10:00:54.029Z,0.80
2023-04-02T10:03:26.010Z,0.52
2023-04-02T10:06:08.855Z,0.55
2023-04-02T10:08:40.618Z,0.43
2023-04-02T10:11:12.765Z,0.50
2023-04-02T10:13:50.447Z,0.50
2023-04-02T10:16:27.177Z,0.57
2023-04-02T10:18:59.304Z,0.40
2023-04-02T10:21:29.763Z,0.40
2023-04-02T10:23:59.496Z,0.50
2023-04-02T10:27:03.004Z,0.50
2023-04-02T10:30:05.078Z,0.60
2023-04-02T10:32:38.487Z,0.60
2023-04-02T10:35:15.681Z,0.50
2023-04-02T10:38:08.127Z,0.60
2023-04-02T10:40:41.146Z,0.40
2023-04-02T10:43:44.141Z,0.30
2023-04-02T10:46:24.459Z,0.35
2023-04-02T10:49:00.799Z,0.50
2023-04-02T10:51:34.673Z,0.40
2023-04-02T10:54:13.935Z,0.30
2023-04-02T10:56:50.941Z,0.70
2023-04-02T10:59:24.430Z,0.40
2023-04-02T11:01:55.272Z,0.40
2023-04-02T11:04:28.409Z,0.40
2023-04-02T11:07:13.211Z,0.47
2023-04-02T11:09:45.516Z,0.43
2023-04-02T11:12:24.287Z,0.50
2023-04-02T11:14:53.350Z,0.60
2023-04-02T11:17:22.428Z,0.60
2023-04-02T11:19:50.429Z,0.77
2023-04-02T11:22:21.313Z,0.70
2023-04-02T11:24:51.056Z,0.80
2023-04-02T11:27:26.310Z,0.75
2023-04-02T11:30:02.559Z,0.60
2023-04-02T11:32:37.178Z,0.60
2023-04-02T11:35:28.104Z,0.68
2023-04-02T11:37:57.398Z,0.75
2023-04-02T11:40:46.639Z,0.88
2023-04-02T11:44:02.557Z,0.68
2023-04-02T11:46:46.168Z,0.90
2023-04-02T11:49:35.849Z,0.60
2023-04-02T11:52:12.043Z,0.68
2023-04-02T11:54:41.445Z,0.60
2023-04-02T11:57:24.031Z,0.50
2023-04-02T12:00:13.707Z,0.57
2023-04-02T12:02:54.124Z,0.50
2023-04-02T12:05:28.102Z,0.50
2023-04-02T12:08:13.464Z,0.57
2023-04-02T12:13:22.406Z,0.70
2023-04-02T12:15:53.552Z,0.70
2023-04-02T12:18:24.722Z,0.52
2023-04-02T12:20:55.044Z,0.57
2023-04-02T12:23:27.410Z,0.55
2023-04-02T12:25:59.371Z,0.60
2023-04-02T12:28:29.965Z,0.75
2023-04-02T12:31:16.569Z,0.60
2023-04-02T12:33:45.141Z,0.60
2023-04-02T12:36:21.949Z,0.40
2023-04-02T12:38:51.895Z,0.73
2023-04-02T12:41:24.305Z,0.68
2023-04-02T12:43:59.089Z,0.40
2023-04-02T12:46:29.265Z,0.40
2023-04-02T12:49:07.232Z,0.40
2023-04-02T12:51:36.828Z,0.40
2023-04-02T12:54:05.364Z,0.40
2023-04-02T12:56:33.301Z,0.50
2023-04-02T12:59:01.946Z,0.50
2023-04-02T13:01:33.837Z,0.60
2023-04-02T13:04:04.361Z,0.40
2023-04-02T13:06:34.676Z,0.50
2023-04-02T13:09:04.504Z,0.70
2023-04-02T13:11:37.128Z,0.50
2023-04-02T13:14:07.369Z,0.60
2023-04-02T13:16:38.091Z,0.50
2023-04-02T13:19:28.929Z,0.50
2023-04-02T13:21:58.554Z,0.60
2023-04-02T13:24:28.301Z,0.45
2023-04-02T13:26:58.024Z,0.40
2023-04-02T13:29:28.476Z,0.40
2023-04-02T13:32:00.403Z,0.40
2023-04-02T13:34:28.753Z,0.43
2023-04-02T13:36:57.348Z,0.60
2023-04-02T13:39:25.364Z,0.40
2023-04-02T13:41:56.632Z,0.40
2023-04-02T13:44:26.205Z,0.40
2023-04-02T13:46:55.653Z,0.47
2023-04-02T13:49:26.184Z,0.40
2023-04-02T13:51:57.875Z,0.30
2023-04-02T13:54:29.472Z,0.40
2023-04-02T13:56:58.548Z,0.55
2023-04-02T13:59:27.069Z,0.60
2023-04-02T14:01:57.485Z,0.60
2023-04-02T14:04:30.665Z,0.70
2023-04-02T14:07:23.568Z,0.95
2023-04-02T14:10:01.712Z,1.10
2023-04-02T14:12:42.033Z,0.95
2023-04-02T14:15:29.025Z,2.13
2023-04-02T14:18:17.311Z,1.88
2023-04-02T14:20:55.028Z,2.08
2023-04-02T14:23:38.301Z,2.58
2023-04-02T14:26:14.882Z,3.20
2023-04-02T14:28:51.457Z,2.95
2023-04-02T14:31:28.749Z,3.33
2023-04-02T14:34:04.135Z,3.20
2023-04-02T14:36:42.029Z,4.03
2023-04-02T14:39:18.512Z,3.95
2023-04-02T14:41:51.491Z,3.20
2023-04-02T14:44:22.436Z,3.78
2023-04-02T14:46:57.439Z,3.85
2023-04-02T14:52:04.684Z,4.07
2023-04-02T14:54:36.008Z,3.33
2023-04-02T14:57:11.238Z,3.70
2023-04-02T14:59:51.655Z,4.07
2023-04-02T15:02:23.609Z,3.70
2023-04-02T15:04:59.509Z,3.50
2023-04-02T15:07:37.057Z,3.28
2023-04-02T15:10:11.606Z,3.97
2023-04-02T15:12:41.837Z,3.72
2023-04-02T15:15:26.796Z,3.13
2023-04-02T15:18:03.119Z,3.00
2023-04-02T15:20:39.103Z,3.90
2023-04-02T15:23:15.638Z,3.50
2023-04-02T15:25:49.738Z,4.20
2023-04-02T15:28:27.861Z,3.37
2023-04-02T15:30:58.856Z,4.15
2023-04-02T15:33:42.704Z,4.13
2023-04-02T15:36:40.258Z,2.95
2023-04-02T15:39:24.090Z,3.38
2023-04-02T15:42:02.465Z,2.97
2023-04-02T15:44:30.630Z,2.45
2023-04-02T15:47:04.696Z,2.95
2023-04-02T15:49:42.740Z,3.10
2023-04-02T15:52:16.401Z,3.47
2023-04-02T15:54:56.795Z,2.35
2023-04-02T15:57:41.643Z,3.08
2023-04-02T16:00:23.807Z,3.10
2023-04-02T16:03:22.892Z,2.83
2023-04-02T16:06:10.730Z,2.58
2023-04-02T16:08:52.929Z,3.30
2023-04-02T16:11:22.198Z,2.13
2023-04-02T16:13:50.141Z,2.92
2023-04-02T16:16:22.980Z,3.63
2023-04-02T16:18:57.574Z,3.00
2023-04-02T16:21:30.022Z,3.13
2023-04-02T16:23:57.929Z,2.85
2023-04-02T16:26:41.997Z,2.53
2023-04-02T16:29:23.197Z,2.20
2023-04-02T16:31:57.874Z,2.55
2023-04-02T16:34:37.576Z,2.42
2023-04-02T16:37:17.498Z,2.40
2023-04-02T16:39:53.693Z,2.63
2023-04-02T16:42:34.137Z,2.42
2023-04-02T16:45:14.481Z,2.38
2023-04-02T16:48:01.494Z,2.50
2023-04-02T16:50:38.596Z,2.80
2023-04-02T16:53:20.266Z,2.60
2023-04-02T16:56:00.281Z,2.53
2023-04-02T16:58:43.531Z,2.35
2023-04-02T17:01:20.731Z,2.83
2023-04-02T17:04:09.124Z,2.63
2023-04-02T17:06:42.826Z,2.33
2023-04-02T17:09:17.324Z,2.38
2023-04-02T17:11:50.595Z,2.00
2023-04-02T17:14:30.070Z,2.42
2023-04-02T17:17:02.108Z,2.28
2023-04-02T17:19:31.332Z,1.90
2023-04-02T17:22:01.925Z,2.22
2023-04-02T17:24:34.784Z,2.13
2023-04-02T17:27:09.467Z,1.95
2023-04-02T17:29:41.190Z,1.88
2023-04-02T17:32:19.298Z,2.08
2023-04-02T17:34:47.183Z,2.03
2023-04-02T17:37:27.540Z,2.30
2023-04-02T17:40:06.707Z,1.92
2023-04-02T17:42:48.528Z,2.08
2023-04-02T17:45:24.295Z,2.35
2023-04-02T17:48:02.681Z,1.90
2023-04-02T17:50:46.076Z,2.40
2023-04-02T17:53:22.639Z,2.38
2023-04-02T17:56:01.191Z,1.90
2023-04-02T17:58:49.761Z,1.60
2023-04-02T18:01:25.994Z,2.28
2023-04-02T18:04:05.602Z,1.88
2023-04-02T18:06:40.021Z,1.77
2023-04-02T18:09:21.293Z,1.75
2023-04-02T18:12:00.487Z,1.88
2023-04-02T18:14:43.898Z,1.85
2023-04-02T18:17:21.357Z,2.08
2023-04-02T18:19:55.270Z,2.00
2023-04-02T18:22:31.066Z,1.95
2023-04-02T18:25:32.242Z,1.88
2023-04-02T18:28:13.141Z,1.75
2023-04-02T18:30:48.177Z,1.50
2023-04-02T18:36:00.648Z,2.95
2023-04-02T18:38:36.009Z,3.55
2023-04-02T18:41:14.950Z,4.85
2023-04-02T18:43:57.354Z,6.03
2023-04-02T18:46:35.027Z,6.60
2023-04-02T18:49:14.748Z,8.38
2023-04-02T18:51:42.788Z,9.05
2023-04-02T18:54:16.800Z,9.82
2023-04-02T18:56:44.711Z,9.65
2023-04-02T18:59:33.381Z,9.27
2023-04-02T19:02:17.600Z,12.25
2023-04-02T19:04:57.950Z,13.13
2023-04-02T19:07:30.213Z,12.68
2023-04-02T19:10:02.690Z,12.93
2023-04-02T19:12:33.740Z,13.27
2023-04-02T19:15:01.653Z,14.40
2023-04-02T19:17:37.062Z,14.55
2023-04-02T19:20:14.596Z,13.88
2023-04-02T19:22:53.680Z,14.93
2023-04-02T19:25:41.158Z,16.25
2023-04-02T19:28:18.001Z,16.23
2023-04-02T19:30:59.216Z,15.70
2023-04-02T19:33:43.357Z,15.55
2023-04-02T19:36:47.211Z,17.60
2023-04-02T19:39:52.140Z,17.75
2023-04-02T19:42:31.489Z,17.00
2023-04-02T19:44:59.763Z,17.15
2023-04-02T19:47:27.775Z,17.00
2023-04-02T19:49:56.595Z,18.27
2023-04-02T19:52:26.056Z,18.75
2023-04-02T19:54:54.056Z,18.75
2023-04-02T19:57:22.082Z,19.58
2023-04-02T19:59:49.994Z,20.42
2023-04-02T20:02:17.887Z,21.20
2023-04-02T20:04:45.834Z,20.83
2023-04-02T20:07:13.765Z,20.40
2023-04-02T20:09:43.162Z,19.60
2023-04-02T20:12:11.498Z,20.15
2023-04-02T20:14:39.603Z,20.33
2023-04-02T20:17:07.502Z,20.73
2023-04-02T20:19:35.561Z,19.73
2023-04-02T20:22:03.450Z,21.17
2023-04-02T20:24:31.365Z,20.90
2023-04-02T20:27:00.586Z,22.15
2023-04-02T20:29:30.694Z,23.80
2023-04-02T20:31:58.632Z,22.75
2023-04-02T20:34:26.776Z,24.85
2023-04-02T20:36:54.797Z,24.77
2023-04-02T20:39:22.702Z,27.45
2023-04-02T20:41:50.687Z,28.33
2023-04-02T20:44:19.922Z,28.63
2023-04-02T20:46:47.798Z,29.63
2023-04-02T20:49:15.673Z,30.80
2023-04-02T20:51:43.610Z,30.77
2023-04-02T20:54:11.503Z,32.67
2023-04-02T20:56:39.685Z,31.00
2023-04-02T20:59:07.565Z,32.60
2023-04-02T21:01:37.535Z,34.45
2023-04-02T21:04:05.765Z,33.85
2023-04-02T21:06:35.760Z,34.17
2023-04-02T21:09:08.187Z,33.67
2023-04-02T21:11:37.174Z,34.85
2023-04-02T21:14:05.381Z,36.08
2023-04-02T21:16:33.721Z,36.50
2023-04-02T21:19:05.561Z,36.08
2023-04-02T21:21:33.971Z,37.58
2023-04-02T21:24:03.906Z,38.33
2023-04-02T21:26:34.826Z,39.33
